sensor_id;sensor_type;location;lat;lon;timestamp;temperature;humidity
5901;DHT22;2976;49.764;9.796;2023-02-01T00:01:12;4.10;99.90
5901;DHT22;2976;49.764;9.796;2023-02-01T00:03:38;4.10;99.90
5901;DHT22;2976;49.764;9.796;2023-02-01T00:06:04;4.00;99.90
5901;DHT22;2976;49.764;9.796;2023-02-01T00:08:29;4.00;99.90
5901;DHT22;2976;49.764;9.796;2023-02-01T00:11:03;3.90;99.90
5901;DHT22;2976;49.764;9.796;2023-02-01T00:13:30;3.90;99.90
5901;DHT22;2976;49.764;9.796;2023-02-01T00:18:29;3.90;99.90
5901;DHT22;2976;49.764;9.796;2023-02-01T00:20:54;3.90;99.90
5901;DHT22;2976;49.764;9.796;2023-02-01T00:23:20;3.90;99.90
5901;DHT22;2976;49.764;9.796;2023-02-01T00:25:45;4.00;99.90
5901;DHT22;2976;49.764;9.796;2023-02-01T00:28:11;4.00;99.90
5901;DHT22;2976;49.764;9.796;2023-02-01T00:30:38;4.00;99.90
5901;DHT22;2976;49.764;9.796;2023-02-01T00:33:04;4.00;99.90
5901;DHT22;2976;49.764;9.796;2023-02-01T00:35:30;4.00;99.90
5901;DHT22;2976;49.764;9.796;2023-02-01T00:37:55;4.00;99.90
5901;DHT22;2976;49.764;9.796;2023-02-01T00:40:23;4.00;99.90
5901;DHT22;2976;49.764;9.796;2023-02-01T00:42:49;4.00;99.90
5901;DHT22;2976;49.764;9.796;2023-02-01T00:45:14;4.00;99.90
5901;DHT22;2976;49.764;9.796;2023-02-01T00:47:40;4.00;99.90
5901;DHT22;2976;49.764;9.796;2023-02-01T00:50:06;4.10;99.90
5901;DHT22;2976;49.764;9.796;2023-02-01T00:52:31;4.10;99.90
5901;DHT22;2976;49.764;9.796;2023-02-01T00:54:57;4.10;99.90
5901;DHT22;2976;49.764;9.796;2023-02-01T00:57:22;4.10;99.90
5901;DHT22;2976;49.764;9.796;2023-02-01T00:59:48;4.10;99.90
5901;DHT22;2976;49.764;9.796;2023-02-01T01:02:13;4.10;99.90
5901;DHT22;2976;49.764;9.796;2023-02-01T01:04:40;4.10;99.90
5901;DHT22;2976;49.764;9.796;2023-02-01T01:07:05;4.10;99.90
5901;DHT22;2976;49.764;9.796;2023-02-01T01:09:31;4.10;99.90
5901;DHT22;2976;49.764;9.796;2023-02-01T01:11:56;4.20;99.90
5901;DHT22;2976;49.764;9.796;2023-02-01T01:14:22;4.10;99.90
5901;DHT22;2976;49.764;9.796;2023-02-01T01:16:47;4.20;99.90
5901;DHT22;2976;49.764;9.796;2023-02-01T01:19:15;4.20;99.90
5901;DHT22;2976;49.764;9.796;2023-02-01T01:21:41;4.20;99.90
5901;DHT22;2976;49.764;9.796;2023-02-01T01:24:06;4.20;99.90
5901;DHT22;2976;49.764;9.796;2023-02-01T01:26:32;4.20;99.90
5901;DHT22;2976;49.764;9.796;2023-02-01T01:28:58;4.20;99.90
5901;DHT22;2976;49.764;9.796;2023-02-01T01:31:25;4.20;99.90
5901;DHT22;2976;49.764;9.796;2023-02-01T01:33:54;4.20;99.90
5901;DHT22;2976;49.764;9.796;2023-02-01T01:36:20;4.20;99.90
5901;DHT22;2976;49.764;9.796;2023-02-01T01:38:46;4.20;99.90
5901;DHT22;2976;49.764;9.796;2023-02-01T01:41:21;4.20;99.90
5901;DHT22;2976;49.764;9.796;2023-02-01T01:46:29;4.30;99.90
5901;DHT22;2976;49.764;9.796;2023-02-01T01:51:31;4.30;99.90
5901;DHT22;2976;49.764;9.796;2023-02-01T01:54:05;4.20;99.90
5901;DHT22;2976;49.764;9.796;2023-02-01T01:56:33;4.20;99.90
5901;DHT22;2976;49.764;9.796;2023-02-01T01:59:00;4.20;99.90
5901;DHT22;2976;49.764;9.796;2023-02-01T02:01:26;4.20;99.90
5901;DHT22;2976;49.764;9.796;2023-02-01T02:03:53;4.20;99.90
5901;DHT22;2976;49.764;9.796;2023-02-01T02:06:34;4.10;99.90
5901;DHT22;2976;49.764;9.796;2023-02-01T02:09:02;4.00;99.90
5901;DHT22;2976;49.764;9.796;2023-02-01T02:11:28;4.00;99.90
5901;DHT22;2976;49.764;9.796;2023-02-01T02:13:54;3.90;99.90
5901;DHT22;2976;49.764;9.796;2023-02-01T02:16:31;3.90;99.90
5901;DHT22;2976;49.764;9.796;2023-02-01T02:25:50;4.00;99.90
5901;DHT22;2976;49.764;9.796;2023-02-01T02:38:28;4.00;99.90
5901;DHT22;2976;49.764;9.796;2023-02-01T02:43:37;4.00;99.90
5901;DHT22;2976;49.764;9.796;2023-02-01T02:46:37;4.00;99.90
5901;DHT22;2976;49.764;9.796;2023-02-01T02:52:39;4.00;99.90
5901;DHT22;2976;49.764;9.796;2023-02-01T02:55:26;4.00;99.90
5901;DHT22;2976;49.764;9.796;2023-02-01T02:57:52;3.90;99.90
5901;DHT22;2976;49.764;9.796;2023-02-01T03:00:37;3.90;99.90
5901;DHT22;2976;49.764;9.796;2023-02-01T03:03:21;3.80;99.90
5901;DHT22;2976;49.764;9.796;2023-02-01T03:06:14;3.90;99.90
5901;DHT22;2976;49.764;9.796;2023-02-01T03:08:41;3.90;99.90
5901;DHT22;2976;49.764;9.796;2023-02-01T03:11:12;3.80;99.90
5901;DHT22;2976;49.764;9.796;2023-02-01T03:13:54;3.80;99.90
5901;DHT22;2976;49.764;9.796;2023-02-01T03:16:49;3.80;99.90
5901;DHT22;2976;49.764;9.796;2023-02-01T03:19:26;3.80;99.90
5901;DHT22;2976;49.764;9.796;2023-02-01T03:21:57;3.70;99.90
5901;DHT22;2976;49.764;9.796;2023-02-01T03:24:45;3.70;99.90
5901;DHT22;2976;49.764;9.796;2023-02-01T03:27:32;3.70;99.90
5901;DHT22;2976;49.764;9.796;2023-02-01T03:32:50;3.60;99.90
5901;DHT22;2976;49.764;9.796;2023-02-01T03:35:45;3.60;99.90
5901;DHT22;2976;49.764;9.796;2023-02-01T03:41:27;3.60;99.90
5901;DHT22;2976;49.764;9.796;2023-02-01T03:44:12;3.60;99.90
5901;DHT22;2976;49.764;9.796;2023-02-01T03:49:22;3.60;99.90
5901;DHT22;2976;49.764;9.796;2023-02-01T03:51:50;3.60;99.90
5901;DHT22;2976;49.764;9.796;2023-02-01T03:54:17;3.60;99.90
5901;DHT22;2976;49.764;9.796;2023-02-01T03:56:46;3.60;99.90
5901;DHT22;2976;49.764;9.796;2023-02-01T03:59:13;3.60;99.90
5901;DHT22;2976;49.764;9.796;2023-02-01T04:01:39;3.50;99.90
5901;DHT22;2976;49.764;9.796;2023-02-01T04:04:06;3.50;99.90
5901;DHT22;2976;49.764;9.796;2023-02-01T04:06:32;3.40;99.90
5901;DHT22;2976;49.764;9.796;2023-02-01T04:08:57;3.40;99.90
5901;DHT22;2976;49.764;9.796;2023-02-01T04:11:23;3.30;99.90
5901;DHT22;2976;49.764;9.796;2023-02-01T04:13:48;3.30;99.90
5901;DHT22;2976;49.764;9.796;2023-02-01T04:16:14;3.30;99.90
5901;DHT22;2976;49.764;9.796;2023-02-01T04:18:39;3.30;99.90
5901;DHT22;2976;49.764;9.796;2023-02-01T04:21:05;3.30;99.90
5901;DHT22;2976;49.764;9.796;2023-02-01T04:23:31;3.30;99.90
5901;DHT22;2976;49.764;9.796;2023-02-01T04:26:01;3.30;99.90
5901;DHT22;2976;49.764;9.796;2023-02-01T04:28:27;3.30;99.90
5901;DHT22;2976;49.764;9.796;2023-02-01T04:30:52;3.30;99.90
5901;DHT22;2976;49.764;9.796;2023-02-01T04:33:18;3.30;99.90
5901;DHT22;2976;49.764;9.796;2023-02-01T04:35:43;3.30;99.90
5901;DHT22;2976;49.764;9.796;2023-02-01T04:38:09;3.30;99.90
5901;DHT22;2976;49.764;9.796;2023-02-01T04:40:34;3.30;99.90
5901;DHT22;2976;49.764;9.796;2023-02-01T04:43:03;3.30;99.90
5901;DHT22;2976;49.764;9.796;2023-02-01T04:45:29;3.30;99.90
5901;DHT22;2976;49.764;9.796;2023-02-01T04:47:54;3.30;99.90
5901;DHT22;2976;49.764;9.796;2023-02-01T04:50:20;3.30;99.90
5901;DHT22;2976;49.764;9.796;2023-02-01T04:52:45;3.30;99.90
5901;DHT22;2976;49.764;9.796;2023-02-01T04:55:12;3.30;99.90
5901;DHT22;2976;49.764;9.796;2023-02-01T04:57:39;3.20;99.90
5901;DHT22;2976;49.764;9.796;2023-02-01T05:00:06;3.20;99.90
5901;DHT22;2976;49.764;9.796;2023-02-01T05:02:32;3.20;99.90
5901;DHT22;2976;49.764;9.796;2023-02-01T05:04:58;3.20;99.90
5901;DHT22;2976;49.764;9.796;2023-02-01T05:07:23;3.20;99.90
5901;DHT22;2976;49.764;9.796;2023-02-01T05:09:49;3.10;99.90
5901;DHT22;2976;49.764;9.796;2023-02-01T05:12:15;3.10;99.90
5901;DHT22;2976;49.764;9.796;2023-02-01T05:14:59;3.10;99.90
5901;DHT22;2976;49.764;9.796;2023-02-01T05:17:24;3.10;99.90
5901;DHT22;2976;49.764;9.796;2023-02-01T05:19:50;3.10;99.90
5901;DHT22;2976;49.764;9.796;2023-02-01T05:22:15;3.10;99.90
5901;DHT22;2976;49.764;9.796;2023-02-01T05:24:41;3.10;99.90
5901;DHT22;2976;49.764;9.796;2023-02-01T05:27:06;3.00;99.90
5901;DHT22;2976;49.764;9.796;2023-02-01T05:29:32;3.10;99.90
5901;DHT22;2976;49.764;9.796;2023-02-01T05:31:57;3.10;99.90
5901;DHT22;2976;49.764;9.796;2023-02-01T05:34:23;3.10;99.90
5901;DHT22;2976;49.764;9.796;2023-02-01T05:36:48;3.10;99.90
5901;DHT22;2976;49.764;9.796;2023-02-01T05:39:14;3.10;99.90
5901;DHT22;2976;49.764;9.796;2023-02-01T05:41:40;3.10;99.90
5901;DHT22;2976;49.764;9.796;2023-02-01T05:44:05;3.10;99.90
5901;DHT22;2976;49.764;9.796;2023-02-01T05:46:35;3.10;99.90
5901;DHT22;2976;49.764;9.796;2023-02-01T05:49:00;3.10;99.90
5901;DHT22;2976;49.764;9.796;2023-02-01T05:51:26;3.20;99.90
5901;DHT22;2976;49.764;9.796;2023-02-01T05:53:51;3.20;99.90
5901;DHT22;2976;49.764;9.796;2023-02-01T05:56:17;3.30;99.90
5901;DHT22;2976;49.764;9.796;2023-02-01T05:58:43;3.30;99.90
5901;DHT22;2976;49.764;9.796;2023-02-01T06:01:08;3.30;99.90
5901;DHT22;2976;49.764;9.796;2023-02-01T06:03:34;3.30;99.90
5901;DHT22;2976;49.764;9.796;2023-02-01T06:05:59;3.30;99.90
5901;DHT22;2976;49.764;9.796;2023-02-01T06:08:26;3.30;99.90
5901;DHT22;2976;49.764;9.796;2023-02-01T06:11:03;3.30;99.90
5901;DHT22;2976;49.764;9.796;2023-02-01T06:13:29;3.40;99.90
5901;DHT22;2976;49.764;9.796;2023-02-01T06:15:54;3.50;99.90
5901;DHT22;2976;49.764;9.796;2023-02-01T06:18:21;3.50;99.90
5901;DHT22;2976;49.764;9.796;2023-02-01T06:20:55;3.50;99.90
5901;DHT22;2976;49.764;9.796;2023-02-01T06:23:21;3.50;99.90
5901;DHT22;2976;49.764;9.796;2023-02-01T06:25:52;3.50;99.90
5901;DHT22;2976;49.764;9.796;2023-02-01T06:28:23;3.60;99.90
5901;DHT22;2976;49.764;9.796;2023-02-01T06:30:49;3.50;99.90
5901;DHT22;2976;49.764;9.796;2023-02-01T06:33:14;3.60;99.90
5901;DHT22;2976;49.764;9.796;2023-02-01T06:35:41;3.60;99.90
5901;DHT22;2976;49.764;9.796;2023-02-01T06:38:07;3.60;99.90
5901;DHT22;2976;49.764;9.796;2023-02-01T06:40:33;3.60;99.90
5901;DHT22;2976;49.764;9.796;2023-02-01T06:42:58;3.70;99.90
5901;DHT22;2976;49.764;9.796;2023-02-01T06:45:24;3.70;99.90
5901;DHT22;2976;49.764;9.796;2023-02-01T06:47:50;3.70;99.90
5901;DHT22;2976;49.764;9.796;2023-02-01T06:50:16;3.70;99.90
5901;DHT22;2976;49.764;9.796;2023-02-01T06:52:41;3.70;99.90
5901;DHT22;2976;49.764;9.796;2023-02-01T06:55:07;3.70;99.90
5901;DHT22;2976;49.764;9.796;2023-02-01T06:57:33;3.70;99.90
5901;DHT22;2976;49.764;9.796;2023-02-01T06:59:59;3.70;99.90
5901;DHT22;2976;49.764;9.796;2023-02-01T07:02:25;3.70;99.90
5901;DHT22;2976;49.764;9.796;2023-02-01T07:04:50;3.60;99.90
5901;DHT22;2976;49.764;9.796;2023-02-01T07:07:16;3.70;99.90
5901;DHT22;2976;49.764;9.796;2023-02-01T07:09:42;3.60;99.90
5901;DHT22;2976;49.764;9.796;2023-02-01T07:12:07;3.70;99.90
5901;DHT22;2976;49.764;9.796;2023-02-01T07:14:33;3.70;99.90
5901;DHT22;2976;49.764;9.796;2023-02-01T07:16:58;3.70;99.90
5901;DHT22;2976;49.764;9.796;2023-02-01T07:19:24;3.80;99.90
5901;DHT22;2976;49.764;9.796;2023-02-01T07:21:49;3.80;99.90
5901;DHT22;2976;49.764;9.796;2023-02-01T07:24:15;3.90;99.90
5901;DHT22;2976;49.764;9.796;2023-02-01T07:26:40;4.00;99.90
5901;DHT22;2976;49.764;9.796;2023-02-01T07:29:06;4.00;99.90
5901;DHT22;2976;49.764;9.796;2023-02-01T07:31:31;4.00;99.90
5901;DHT22;2976;49.764;9.796;2023-02-01T07:33:57;4.10;99.90
5901;DHT22;2976;49.764;9.796;2023-02-01T07:36:23;4.10;99.90
5901;DHT22;2976;49.764;9.796;2023-02-01T07:38:49;4.10;99.90
5901;DHT22;2976;49.764;9.796;2023-02-01T07:41:16;4.10;99.90
5901;DHT22;2976;49.764;9.796;2023-02-01T07:43:42;4.10;99.90
5901;DHT22;2976;49.764;9.796;2023-02-01T07:46:10;4.00;99.90
5901;DHT22;2976;49.764;9.796;2023-02-01T07:48:36;4.00;99.90
5901;DHT22;2976;49.764;9.796;2023-02-01T07:51:08;4.00;99.90
5901;DHT22;2976;49.764;9.796;2023-02-01T07:53:34;4.10;99.90
5901;DHT22;2976;49.764;9.796;2023-02-01T07:56:01;4.10;99.90
5901;DHT22;2976;49.764;9.796;2023-02-01T07:58:27;4.20;99.90
5901;DHT22;2976;49.764;9.796;2023-02-01T08:00:53;4.20;99.90
5901;DHT22;2976;49.764;9.796;2023-02-01T08:03:37;4.20;99.90
5901;DHT22;2976;49.764;9.796;2023-02-01T08:06:04;4.20;99.90
5901;DHT22;2976;49.764;9.796;2023-02-01T08:08:29;4.30;99.90
5901;DHT22;2976;49.764;9.796;2023-02-01T08:10:59;4.30;99.90
5901;DHT22;2976;49.764;9.796;2023-02-01T08:13:24;4.30;99.90
5901;DHT22;2976;49.764;9.796;2023-02-01T08:15:50;4.30;99.90
5901;DHT22;2976;49.764;9.796;2023-02-01T08:18:15;4.30;99.90
5901;DHT22;2976;49.764;9.796;2023-02-01T08:20:43;4.30;99.90
5901;DHT22;2976;49.764;9.796;2023-02-01T08:23:11;4.20;99.90
5901;DHT22;2976;49.764;9.796;2023-02-01T08:25:37;4.30;99.90
5901;DHT22;2976;49.764;9.796;2023-02-01T08:28:03;4.30;99.90
5901;DHT22;2976;49.764;9.796;2023-02-01T08:30:29;4.30;99.90
5901;DHT22;2976;49.764;9.796;2023-02-01T08:32:55;4.30;99.90
5901;DHT22;2976;49.764;9.796;2023-02-01T08:35:20;4.30;99.90
5901;DHT22;2976;49.764;9.796;2023-02-01T08:37:46;4.30;99.90
5901;DHT22;2976;49.764;9.796;2023-02-01T08:40:11;4.30;99.90
5901;DHT22;2976;49.764;9.796;2023-02-01T08:42:39;4.30;99.90
5901;DHT22;2976;49.764;9.796;2023-02-01T08:45:21;4.40;99.90
5901;DHT22;2976;49.764;9.796;2023-02-01T08:47:49;4.40;99.90
5901;DHT22;2976;49.764;9.796;2023-02-01T08:50:15;4.50;99.90
5901;DHT22;2976;49.764;9.796;2023-02-01T08:52:41;4.50;99.90
5901;DHT22;2976;49.764;9.796;2023-02-01T08:55:07;4.50;99.90
5901;DHT22;2976;49.764;9.796;2023-02-01T08:57:33;4.50;99.90
5901;DHT22;2976;49.764;9.796;2023-02-01T08:59:59;4.60;99.90
5901;DHT22;2976;49.764;9.796;2023-02-01T09:02:25;4.60;99.90
5901;DHT22;2976;49.764;9.796;2023-02-01T09:04:51;4.70;99.90
5901;DHT22;2976;49.764;9.796;2023-02-01T09:07:17;4.70;99.90
5901;DHT22;2976;49.764;9.796;2023-02-01T09:09:44;4.80;99.90
5901;DHT22;2976;49.764;9.796;2023-02-01T09:12:10;4.90;99.90
5901;DHT22;2976;49.764;9.796;2023-02-01T09:14:35;4.90;99.90
5901;DHT22;2976;49.764;9.796;2023-02-01T09:17:01;4.90;99.90
5901;DHT22;2976;49.764;9.796;2023-02-01T09:19:26;4.90;99.90
5901;DHT22;2976;49.764;9.796;2023-02-01T09:21:52;5.00;99.90
5901;DHT22;2976;49.764;9.796;2023-02-01T09:24:17;5.00;99.90
5901;DHT22;2976;49.764;9.796;2023-02-01T09:26:44;5.00;99.90
5901;DHT22;2976;49.764;9.796;2023-02-01T09:29:09;5.10;99.90
5901;DHT22;2976;49.764;9.796;2023-02-01T09:31:39;5.20;99.90
5901;DHT22;2976;49.764;9.796;2023-02-01T09:34:05;5.10;99.90
5901;DHT22;2976;49.764;9.796;2023-02-01T09:36:31;5.10;99.90
5901;DHT22;2976;49.764;9.796;2023-02-01T09:38:58;5.20;99.90
5901;DHT22;2976;49.764;9.796;2023-02-01T09:41:51;5.20;99.90
5901;DHT22;2976;49.764;9.796;2023-02-01T09:47:19;5.30;99.90
5901;DHT22;2976;49.764;9.796;2023-02-01T09:52:25;5.30;99.90
5901;DHT22;2976;49.764;9.796;2023-02-01T09:54:56;5.30;99.90
5901;DHT22;2976;49.764;9.796;2023-02-01T09:57:32;5.30;99.90
5901;DHT22;2976;49.764;9.796;2023-02-01T10:00:05;5.30;99.90
5901;DHT22;2976;49.764;9.796;2023-02-01T10:02:34;5.20;99.90
5901;DHT22;2976;49.764;9.796;2023-02-01T10:05:02;5.20;99.90
5901;DHT22;2976;49.764;9.796;2023-02-01T10:07:39;5.20;99.90
5901;DHT22;2976;49.764;9.796;2023-02-01T10:10:15;5.10;99.90
5901;DHT22;2976;49.764;9.796;2023-02-01T10:13:14;5.10;99.90
5901;DHT22;2976;49.764;9.796;2023-02-01T10:15:59;5.20;99.90
5901;DHT22;2976;49.764;9.796;2023-02-01T10:21:27;5.20;99.90
5901;DHT22;2976;49.764;9.796;2023-02-01T10:26:57;5.30;99.90
5901;DHT22;2976;49.764;9.796;2023-02-01T10:29:33;5.30;99.90
5901;DHT22;2976;49.764;9.796;2023-02-01T10:32:01;5.30;99.90
5901;DHT22;2976;49.764;9.796;2023-02-01T10:34:33;5.30;99.90
5901;DHT22;2976;49.764;9.796;2023-02-01T10:39:44;5.30;99.90
5901;DHT22;2976;49.764;9.796;2023-02-01T10:42:11;5.30;99.90
5901;DHT22;2976;49.764;9.796;2023-02-01T10:44:41;5.30;99.90
5901;DHT22;2976;49.764;9.796;2023-02-01T10:47:10;5.30;99.90
5901;DHT22;2976;49.764;9.796;2023-02-01T10:49:43;5.30;99.90
5901;DHT22;2976;49.764;9.796;2023-02-01T10:54:46;5.10;99.90
5901;DHT22;2976;49.764;9.796;2023-02-01T10:57:30;5.10;99.90
5901;DHT22;2976;49.764;9.796;2023-02-01T10:59:57;5.10;99.90
5901;DHT22;2976;49.764;9.796;2023-02-01T11:02:34;5.10;99.90
5901;DHT22;2976;49.764;9.796;2023-02-01T11:05:07;5.10;99.90
5901;DHT22;2976;49.764;9.796;2023-02-01T11:07:39;5.10;99.90
5901;DHT22;2976;49.764;9.796;2023-02-01T11:10:37;5.20;99.90
5901;DHT22;2976;49.764;9.796;2023-02-01T11:13:04;5.20;99.90
5901;DHT22;2976;49.764;9.796;2023-02-01T11:15:30;5.20;99.90
5901;DHT22;2976;49.764;9.796;2023-02-01T11:17:55;5.30;99.90
5901;DHT22;2976;49.764;9.796;2023-02-01T11:22:56;5.60;99.90
5901;DHT22;2976;49.764;9.796;2023-02-01T11:25:23;5.50;99.90
5901;DHT22;2976;49.764;9.796;2023-02-01T11:27:50;5.60;99.90
5901;DHT22;2976;49.764;9.796;2023-02-01T11:30:18;5.50;99.90
5901;DHT22;2976;49.764;9.796;2023-02-01T11:32:47;5.50;99.90
5901;DHT22;2976;49.764;9.796;2023-02-01T11:35:18;5.50;99.90
5901;DHT22;2976;49.764;9.796;2023-02-01T11:37:50;5.60;99.90
5901;DHT22;2976;49.764;9.796;2023-02-01T11:43:00;5.60;99.90
5901;DHT22;2976;49.764;9.796;2023-02-01T11:45:31;5.60;99.90
5901;DHT22;2976;49.764;9.796;2023-02-01T11:47:59;5.60;99.90
5901;DHT22;2976;49.764;9.796;2023-02-01T11:50:46;5.60;99.90
5901;DHT22;2976;49.764;9.796;2023-02-01T11:53:39;5.60;99.90
5901;DHT22;2976;49.764;9.796;2023-02-01T12:04:47;5.40;99.90
5901;DHT22;2976;49.764;9.796;2023-02-01T12:13:20;5.50;99.90
5901;DHT22;2976;49.764;9.796;2023-02-01T12:16:04;5.40;99.90
5901;DHT22;2976;49.764;9.796;2023-02-01T12:35:44;5.40;99.90
5901;DHT22;2976;49.764;9.796;2023-02-01T12:38:45;5.40;99.90
5901;DHT22;2976;49.764;9.796;2023-02-01T12:41:45;5.40;99.90
5901;DHT22;2976;49.764;9.796;2023-02-01T12:50:06;5.50;99.90
5901;DHT22;2976;49.764;9.796;2023-02-01T12:52:51;5.60;99.90
5901;DHT22;2976;49.764;9.796;2023-02-01T12:58:19;5.50;99.90
5901;DHT22;2976;49.764;9.796;2023-02-01T13:00:55;5.50;99.90
5901;DHT22;2976;49.764;9.796;2023-02-01T13:06:12;5.40;99.90
5901;DHT22;2976;49.764;9.796;2023-02-01T13:08:56;5.30;99.90
5901;DHT22;2976;49.764;9.796;2023-02-01T13:11:39;5.40;99.90
5901;DHT22;2976;49.764;9.796;2023-02-01T13:14:19;5.30;99.90
5901;DHT22;2976;49.764;9.796;2023-02-01T13:16:51;5.30;99.90
5901;DHT22;2976;49.764;9.796;2023-02-01T13:24:53;5.30;99.90
5901;DHT22;2976;49.764;9.796;2023-02-01T13:27:21;5.40;99.90
5901;DHT22;2976;49.764;9.796;2023-02-01T13:30:38;5.40;99.90
5901;DHT22;2976;49.764;9.796;2023-02-01T13:33:00;5.40;99.90
5901;DHT22;2976;49.764;9.796;2023-02-01T13:40:49;5.30;99.90
5901;DHT22;2976;49.764;9.796;2023-02-01T13:43:19;5.30;99.90
5901;DHT22;2976;49.764;9.796;2023-02-01T13:45:50;5.30;99.90
5901;DHT22;2976;49.764;9.796;2023-02-01T13:48:54;5.30;99.90
5901;DHT22;2976;49.764;9.796;2023-02-01T13:51:43;5.30;99.90
5901;DHT22;2976;49.764;9.796;2023-02-01T13:54:26;5.30;99.90
5901;DHT22;2976;49.764;9.796;2023-02-01T13:56:52;5.30;99.90
5901;DHT22;2976;49.764;9.796;2023-02-01T14:10:49;5.40;99.90
5901;DHT22;2976;49.764;9.796;2023-02-01T14:26:21;5.40;99.90
5901;DHT22;2976;49.764;9.796;2023-02-01T14:31:40;5.30;99.90
5901;DHT22;2976;49.764;9.796;2023-02-01T14:36:59;5.40;99.90
5901;DHT22;2976;49.764;9.796;2023-02-01T14:41:55;5.40;99.90
5901;DHT22;2976;49.764;9.796;2023-02-01T14:44:27;5.50;99.90
5901;DHT22;2976;49.764;9.796;2023-02-01T14:49:58;5.60;99.90
5901;DHT22;2976;49.764;9.796;2023-02-01T14:52:37;5.60;99.90
5901;DHT22;2976;49.764;9.796;2023-02-01T14:57:40;5.60;99.90
5901;DHT22;2976;49.764;9.796;2023-02-01T15:00:20;5.60;99.90
5901;DHT22;2976;49.764;9.796;2023-02-01T15:02:47;5.60;99.90
5901;DHT22;2976;49.764;9.796;2023-02-01T15:05:29;5.50;99.90
5901;DHT22;2976;49.764;9.796;2023-02-01T15:07:58;5.50;99.90
5901;DHT22;2976;49.764;9.796;2023-02-01T15:10:25;5.50;99.90
5901;DHT22;2976;49.764;9.796;2023-02-01T15:12:52;5.50;99.90
5901;DHT22;2976;49.764;9.796;2023-02-01T15:15:24;5.40;99.90
5901;DHT22;2976;49.764;9.796;2023-02-01T15:17:55;5.40;99.90
5901;DHT22;2976;49.764;9.796;2023-02-01T15:20:26;5.40;99.90
5901;DHT22;2976;49.764;9.796;2023-02-01T15:23:18;5.40;99.90
5901;DHT22;2976;49.764;9.796;2023-02-01T15:25:46;5.40;99.90
5901;DHT22;2976;49.764;9.796;2023-02-01T15:28:13;5.40;99.90
5901;DHT22;2976;49.764;9.796;2023-02-01T15:30:39;5.40;99.90
5901;DHT22;2976;49.764;9.796;2023-02-01T15:35:41;5.40;99.90
5901;DHT22;2976;49.764;9.796;2023-02-01T15:38:30;5.40;99.90
5901;DHT22;2976;49.764;9.796;2023-02-01T15:44:04;5.30;99.90
5901;DHT22;2976;49.764;9.796;2023-02-01T15:46:38;5.40;99.90
5901;DHT22;2976;49.764;9.796;2023-02-01T15:49:04;5.30;99.90
5901;DHT22;2976;49.764;9.796;2023-02-01T15:51:31;5.30;99.90
5901;DHT22;2976;49.764;9.796;2023-02-01T15:54:04;5.30;99.90
5901;DHT22;2976;49.764;9.796;2023-02-01T15:56:35;5.30;99.90
5901;DHT22;2976;49.764;9.796;2023-02-01T15:59:03;5.20;99.90
5901;DHT22;2976;49.764;9.796;2023-02-01T16:01:30;5.30;99.90
5901;DHT22;2976;49.764;9.796;2023-02-01T16:06:46;5.20;99.90
5901;DHT22;2976;49.764;9.796;2023-02-01T16:09:15;5.20;99.90
5901;DHT22;2976;49.764;9.796;2023-02-01T16:11:48;5.20;99.90
5901;DHT22;2976;49.764;9.796;2023-02-01T16:14:15;5.20;99.90
5901;DHT22;2976;49.764;9.796;2023-02-01T16:16:41;5.20;99.90
5901;DHT22;2976;49.764;9.796;2023-02-01T16:19:07;5.20;99.90
5901;DHT22;2976;49.764;9.796;2023-02-01T16:21:32;5.20;99.90
5901;DHT22;2976;49.764;9.796;2023-02-01T16:23:58;5.30;99.90
5901;DHT22;2976;49.764;9.796;2023-02-01T16:26:29;5.20;99.90
5901;DHT22;2976;49.764;9.796;2023-02-01T16:28:54;5.20;99.90
5901;DHT22;2976;49.764;9.796;2023-02-01T16:31:27;5.20;99.90
5901;DHT22;2976;49.764;9.796;2023-02-01T16:33:53;5.20;99.90
5901;DHT22;2976;49.764;9.796;2023-02-01T16:36:19;5.20;99.90
5901;DHT22;2976;49.764;9.796;2023-02-01T16:38:45;5.20;99.90
5901;DHT22;2976;49.764;9.796;2023-02-01T16:41:16;5.20;99.90
5901;DHT22;2976;49.764;9.796;2023-02-01T16:43:42;5.10;99.90
5901;DHT22;2976;49.764;9.796;2023-02-01T16:46:16;5.20;99.90
5901;DHT22;2976;49.764;9.796;2023-02-01T16:48:48;5.20;99.90
5901;DHT22;2976;49.764;9.796;2023-02-01T16:51:15;5.10;99.90
5901;DHT22;2976;49.764;9.796;2023-02-01T16:53:42;5.20;99.90
5901;DHT22;2976;49.764;9.796;2023-02-01T16:56:32;5.20;99.90
5901;DHT22;2976;49.764;9.796;2023-02-01T16:58:58;5.10;99.90
5901;DHT22;2976;49.764;9.796;2023-02-01T17:01:24;5.10;99.90
5901;DHT22;2976;49.764;9.796;2023-02-01T17:03:50;5.00;99.90
5901;DHT22;2976;49.764;9.796;2023-02-01T17:06:19;5.10;99.90
5901;DHT22;2976;49.764;9.796;2023-02-01T17:08:49;5.20;99.90
5901;DHT22;2976;49.764;9.796;2023-02-01T17:11:16;5.20;99.90
5901;DHT22;2976;49.764;9.796;2023-02-01T17:13:42;5.20;99.90
5901;DHT22;2976;49.764;9.796;2023-02-01T17:16:26;5.10;99.90
5901;DHT22;2976;49.764;9.796;2023-02-01T17:18:57;5.10;99.90
5901;DHT22;2976;49.764;9.796;2023-02-01T17:21:25;5.00;99.90
5901;DHT22;2976;49.764;9.796;2023-02-01T17:23:51;5.10;99.90
5901;DHT22;2976;49.764;9.796;2023-02-01T17:26:18;5.00;99.90
5901;DHT22;2976;49.764;9.796;2023-02-01T17:28:43;5.00;99.90
5901;DHT22;2976;49.764;9.796;2023-02-01T17:31:13;5.00;99.90
5901;DHT22;2976;49.764;9.796;2023-02-01T17:33:40;5.00;99.90
5901;DHT22;2976;49.764;9.796;2023-02-01T17:36:08;5.00;99.90
5901;DHT22;2976;49.764;9.796;2023-02-01T17:38:35;5.00;99.90
5901;DHT22;2976;49.764;9.796;2023-02-01T17:41:00;5.00;99.90
5901;DHT22;2976;49.764;9.796;2023-02-01T17:43:26;5.00;99.90
5901;DHT22;2976;49.764;9.796;2023-02-01T17:46:09;5.10;99.90
5901;DHT22;2976;49.764;9.796;2023-02-01T17:48:35;5.10;99.90
5901;DHT22;2976;49.764;9.796;2023-02-01T17:51:00;5.20;99.90
5901;DHT22;2976;49.764;9.796;2023-02-01T17:53:27;5.20;99.90
5901;DHT22;2976;49.764;9.796;2023-02-01T17:55:53;5.20;99.90
5901;DHT22;2976;49.764;9.796;2023-02-01T17:58:19;5.30;99.90
5901;DHT22;2976;49.764;9.796;2023-02-01T18:00:47;5.30;99.90
5901;DHT22;2976;49.764;9.796;2023-02-01T18:05:46;5.30;99.90
5901;DHT22;2976;49.764;9.796;2023-02-01T18:08:15;5.30;99.90
5901;DHT22;2976;49.764;9.796;2023-02-01T18:10:41;5.40;99.90
5901;DHT22;2976;49.764;9.796;2023-02-01T18:13:08;5.30;99.90
5901;DHT22;2976;49.764;9.796;2023-02-01T18:15:33;5.30;99.90
5901;DHT22;2976;49.764;9.796;2023-02-01T18:18:00;5.40;99.90
5901;DHT22;2976;49.764;9.796;2023-02-01T18:20:26;5.40;99.90
5901;DHT22;2976;49.764;9.796;2023-02-01T18:22:52;5.40;99.90
5901;DHT22;2976;49.764;9.796;2023-02-01T18:25:25;5.50;99.90
5901;DHT22;2976;49.764;9.796;2023-02-01T18:27:53;5.40;99.90
5901;DHT22;2976;49.764;9.796;2023-02-01T18:30:20;5.40;99.90
5901;DHT22;2976;49.764;9.796;2023-02-01T18:32:47;5.50;99.90
5901;DHT22;2976;49.764;9.796;2023-02-01T18:35:20;5.60;99.90
5901;DHT22;2976;49.764;9.796;2023-02-01T18:37:46;5.50;99.90
5901;DHT22;2976;49.764;9.796;2023-02-01T18:40:17;5.50;99.90
5901;DHT22;2976;49.764;9.796;2023-02-01T18:42:43;5.40;99.90
5901;DHT22;2976;49.764;9.796;2023-02-01T18:47:57;5.40;99.90
5901;DHT22;2976;49.764;9.796;2023-02-01T18:50:24;5.40;99.90
5901;DHT22;2976;49.764;9.796;2023-02-01T18:52:54;5.40;99.90
5901;DHT22;2976;49.764;9.796;2023-02-01T18:55:20;5.40;99.90
5901;DHT22;2976;49.764;9.796;2023-02-01T18:57:46;5.30;99.90
5901;DHT22;2976;49.764;9.796;2023-02-01T19:00:12;5.20;99.90
5901;DHT22;2976;49.764;9.796;2023-02-01T19:02:38;5.20;99.90
5901;DHT22;2976;49.764;9.796;2023-02-01T19:05:08;5.20;99.90
5901;DHT22;2976;49.764;9.796;2023-02-01T19:07:34;5.20;99.90
5901;DHT22;2976;49.764;9.796;2023-02-01T19:10:01;5.20;99.90
5901;DHT22;2976;49.764;9.796;2023-02-01T19:12:27;5.20;99.90
5901;DHT22;2976;49.764;9.796;2023-02-01T19:14:53;5.20;99.90
5901;DHT22;2976;49.764;9.796;2023-02-01T19:17:19;5.30;99.90
5901;DHT22;2976;49.764;9.796;2023-02-01T19:19:45;5.20;99.90